createdAt,value
2023-03-18T00:02:14.433Z,6.95
2023-03-18T00:06:27.390Z,6.95
2023-03-18T00:10:39.909Z,5.97
2023-03-18T00:14:52.490Z,6.18
2023-03-18T00:19:05.181Z,5.95
2023-03-18T00:23:18.436Z,6.07
2023-03-18T00:27:31.041Z,6.22
2023-03-18T00:31:43.985Z,4.68
2023-03-18T00:35:56.466Z,3.95
2023-03-18T00:40:17.476Z,5.05
2023-03-18T00:44:30.952Z,5.97
2023-03-18T00:48:43.977Z,6.43
2023-03-18T00:52:56.765Z,5.50
2023-03-18T00:57:11.151Z,5.97
2023-03-18T01:01:24.831Z,6.65
2023-03-18T01:05:38.522Z,6.57
2023-03-18T01:09:51.028Z,7.15
2023-03-18T01:14:03.921Z,7.55
2023-03-18T01:18:16.989Z,7.63
2023-03-18T01:22:29.687Z,7.25
2023-03-18T01:26:42.091Z,8.10
2023-03-18T01:30:55.987Z,7.55
2023-03-18T01:35:09.502Z,8.73
2023-03-18T01:39:24.678Z,8.60
2023-03-18T01:43:40.916Z,8.80
2023-03-18T01:47:53.769Z,8.05
2023-03-18T01:52:14.179Z,8.55
2023-03-18T01:56:27.398Z,8.40
2023-03-18T02:00:51.945Z,8.85
2023-03-18T02:05:06.790Z,8.27
2023-03-18T02:09:19.566Z,8.07
2023-03-18T02:13:32.503Z,7.65
2023-03-18T02:17:52.276Z,9.70
2023-03-18T02:22:24.414Z,8.25
2023-03-18T02:27:01.913Z,8.82
2023-03-18T02:31:27.543Z,8.45
2023-03-18T02:35:43.001Z,9.43
2023-03-18T02:39:55.481Z,8.73
2023-03-18T02:44:09.212Z,8.80
2023-03-18T02:48:37.836Z,9.43
2023-03-18T02:52:50.768Z,9.98
2023-03-18T02:57:04.555Z,10.48
2023-03-18T03:01:17.789Z,10.10
2023-03-18T03:05:30.340Z,9.95
2023-03-18T03:09:42.902Z,10.18
2023-03-18T03:13:55.332Z,10.32
2023-03-18T03:18:08.078Z,9.60
2023-03-18T03:22:22.266Z,10.13
2023-03-18T03:26:37.743Z,7.85
2023-03-18T03:30:50.716Z,6.78
2023-03-18T03:35:03.146Z,6.20
2023-03-18T03:39:15.457Z,6.00
2023-03-18T03:43:28.077Z,4.95
2023-03-18T03:47:41.948Z,4.35
2023-03-18T03:51:55.191Z,4.40
2023-03-18T03:56:09.535Z,4.70
2023-03-18T04:00:23.088Z,4.63
2023-03-18T04:04:36.156Z,3.60
2023-03-18T04:08:48.929Z,3.35
2023-03-18T04:13:01.396Z,3.95
2023-03-18T04:17:14.465Z,3.65
2023-03-18T04:21:27.541Z,3.33
2023-03-18T04:25:42.128Z,4.18
2023-03-18T04:29:54.810Z,3.80
2023-03-18T04:34:12.155Z,3.40
2023-03-18T04:38:24.915Z,3.17
2023-03-18T04:42:38.879Z,3.35
2023-03-18T04:46:53.995Z,3.88
2023-03-18T04:51:09.578Z,4.50
2023-03-18T04:55:23.073Z,4.47
2023-03-18T04:59:36.641Z,4.40
2023-03-18T05:03:52.054Z,3.70
2023-03-18T05:08:07.826Z,3.67
2023-03-18T05:12:20.759Z,3.17
2023-03-18T05:16:33.320Z,3.63
2023-03-18T05:20:47.142Z,3.45
2023-03-18T05:25:02.241Z,3.53
2023-03-18T05:29:16.899Z,4.82
2023-03-18T05:33:38.498Z,5.43
2023-03-18T05:37:51.408Z,6.57
2023-03-18T05:42:05.104Z,7.50
2023-03-18T05:46:18.298Z,7.32
2023-03-18T05:50:47.293Z,8.07
2023-03-18T05:55:05.319Z,6.07
2023-03-18T05:59:24.190Z,8.35
2023-03-18T06:03:41.936Z,6.75
2023-03-18T06:07:55.227Z,6.35
2023-03-18T06:12:08.159Z,6.07
2023-03-18T06:16:22.604Z,8.00
2023-03-18T06:20:38.939Z,9.00
2023-03-18T06:24:52.950Z,8.80
2023-03-18T06:29:05.632Z,9.27
2023-03-18T06:33:18.601Z,10.02
2023-03-18T06:37:31.505Z,11.05
2023-03-18T06:41:44.004Z,11.50
2023-03-18T06:46:29.311Z,11.65
2023-03-18T06:50:43.366Z,11.15
2023-03-18T06:55:03.011Z,11.68
2023-03-18T06:59:15.800Z,10.93
2023-03-18T07:03:28.504Z,9.60
2023-03-18T07:07:42.306Z,10.65
2023-03-18T07:11:57.002Z,9.35
2023-03-18T07:16:10.216Z,9.88
2023-03-18T07:20:24.323Z,9.18
2023-03-18T07:24:37.760Z,7.47
2023-03-18T07:28:50.752Z,8.23
2023-03-18T07:33:04.398Z,8.88
2023-03-18T07:37:17.205Z,7.75
2023-03-18T07:41:29.952Z,7.70
2023-03-18T07:45:42.308Z,8.45
2023-03-18T07:49:54.750Z,7.78
2023-03-18T07:54:07.220Z,7.75
2023-03-18T07:58:19.946Z,5.93
2023-03-18T08:02:32.378Z,7.00
2023-03-18T08:06:45.284Z,7.25
2023-03-18T08:11:00.662Z,7.13
2023-03-18T08:15:14.050Z,6.60
2023-03-18T08:19:27.357Z,5.60
2023-03-18T08:23:39.912Z,6.10
2023-03-18T08:27:52.616Z,5.15
2023-03-18T08:32:05.335Z,6.47
2023-03-18T08:36:17.932Z,7.05
2023-03-18T08:40:30.317Z,6.95
2023-03-18T08:44:43.753Z,6.25
2023-03-18T08:48:56.118Z,6.80
2023-03-18T08:53:09.657Z,6.82
2023-03-18T08:57:22.294Z,7.22
2023-03-18T09:01:38.481Z,6.60
2023-03-18T09:05:54.067Z,6.35
2023-03-18T09:10:07.075Z,5.78
2023-03-18T09:14:20.195Z,4.22
2023-03-18T09:18:33.154Z,4.30
2023-03-18T09:22:46.726Z,4.90
2023-03-18T09:27:00.163Z,4.47
2023-03-18T09:31:14.028Z,4.18
2023-03-18T09:35:26.566Z,4.07
2023-03-18T09:39:39.174Z,3.50
2023-03-18T09:44:28.717Z,3.67
2023-03-18T09:49:04.062Z,4.18
2023-03-18T09:53:25.390Z,4.00
2023-03-18T09:57:43.029Z,3.95
2023-03-18T10:01:58.731Z,3.20
2023-03-18T10:06:21.965Z,3.60
2023-03-18T10:10:46.981Z,4.00
2023-03-18T10:15:11.359Z,3.40
2023-03-18T10:19:24.084Z,3.50
2023-03-18T10:23:54.737Z,4.38
2023-03-18T10:28:33.891Z,3.45
2023-03-18T10:32:58.431Z,3.97
2023-03-18T10:37:26.133Z,4.20
2023-03-18T10:41:41.332Z,4.40
2023-03-18T10:46:03.964Z,4.10
2023-03-18T10:50:32.357Z,4.40
2023-03-18T10:54:53.702Z,3.95
2023-03-18T10:59:16.568Z,3.55
2023-03-18T11:03:36.213Z,3.70
2023-03-18T11:08:00.902Z,3.95
2023-03-18T11:12:19.648Z,3.65
2023-03-18T11:16:35.110Z,3.37
2023-03-18T11:20:49.989Z,3.90
2023-03-18T11:25:27.262Z,3.67
2023-03-18T11:29:46.832Z,3.90
2023-03-18T11:34:01.125Z,3.78
2023-03-18T11:38:32.170Z,3.47
2023-03-18T11:42:49.204Z,6.85
2023-03-18T11:47:04.026Z,3.70
2023-03-18T11:51:50.471Z,3.15
2023-03-18T11:56:19.296Z,3.47
2023-03-18T12:00:57.956Z,3.00
2023-03-18T12:05:21.968Z,2.80
2023-03-18T12:09:38.735Z,2.97
2023-03-18T12:13:53.186Z,3.22
2023-03-18T12:18:20.795Z,3.13
2023-03-18T12:22:50.004Z,4.88
2023-03-18T12:27:40.280Z,3.30
2023-03-18T12:32:15.857Z,3.20
2023-03-18T12:36:44.691Z,3.65
2023-03-18T12:41:17.867Z,4.13
2023-03-18T12:45:39.915Z,4.03
2023-03-18T12:50:01.244Z,4.40
2023-03-18T12:58:42.154Z,4.57
2023-03-18T13:03:09.197Z,4.53
2023-03-18T13:08:03.446Z,3.80
2023-03-18T13:12:37.979Z,4.45
2023-03-18T13:17:06.407Z,3.90
2023-03-18T13:21:41.421Z,3.20
2023-03-18T13:31:29.880Z,3.22
2023-03-18T13:35:59.792Z,3.20
2023-03-18T13:40:39.950Z,3.75
2023-03-18T13:45:28.708Z,2.58
2023-03-18T13:49:41.495Z,2.78
2023-03-18T13:53:58.925Z,3.15
2023-03-18T13:58:26.085Z,2.65
2023-03-18T14:02:42.140Z,2.63
2023-03-18T14:07:19.812Z,3.00
2023-03-18T14:11:45.508Z,2.50
2023-03-18T14:15:59.257Z,2.75
2023-03-18T14:20:22.741Z,2.30
2023-03-18T14:24:40.460Z,2.78
2023-03-18T14:29:18.598Z,2.20
2023-03-18T14:33:37.250Z,2.25
2023-03-18T14:38:17.770Z,2.60
2023-03-18T14:42:48.892Z,2.53
2023-03-18T14:47:06.945Z,2.65
2023-03-18T14:51:21.775Z,2.75
2023-03-18T14:55:36.243Z,2.72
2023-03-18T14:59:50.941Z,2.60
2023-03-18T15:04:04.235Z,2.53
2023-03-18T15:08:37.452Z,2.92
2023-03-18T15:13:26.498Z,2.47
2023-03-18T15:17:39.732Z,2.60
2023-03-18T15:21:52.918Z,2.78
2023-03-18T15:26:29.221Z,3.17
2023-03-18T15:30:58.109Z,2.88
2023-03-18T15:35:29.162Z,2.20
2023-03-18T15:39:42.551Z,2.65
2023-03-18T15:43:55.021Z,2.70
2023-03-18T15:48:17.131Z,2.83
2023-03-18T15:52:36.935Z,3.20
2023-03-18T15:56:50.468Z,3.05
2023-03-18T16:01:03.170Z,3.13
2023-03-18T16:05:17.718Z,3.22
2023-03-18T16:09:36.285Z,2.88
2023-03-18T16:13:49.267Z,3.00
2023-03-18T16:18:06.866Z,4.10
2023-03-18T16:22:19.390Z,4.20
2023-03-18T16:26:37.710Z,4.00
2023-03-18T16:30:56.364Z,4.03
2023-03-18T16:35:13.350Z,4.18
2023-03-18T16:39:34.216Z,3.88
2023-03-18T16:43:49.409Z,4.38
2023-03-18T16:48:05.132Z,4.45
2023-03-18T16:52:18.335Z,4.75
2023-03-18T16:56:31.847Z,5.15
2023-03-18T17:00:48.378Z,5.03
2023-03-18T17:05:01.703Z,5.72
2023-03-18T17:09:14.368Z,6.60
2023-03-18T17:13:33.108Z,7.07
2023-03-18T17:17:46.107Z,6.88
2023-03-18T17:21:58.537Z,9.43
2023-03-18T17:26:15.309Z,8.85
2023-03-18T17:30:39.810Z,9.48
2023-03-18T17:34:54.249Z,12.10
2023-03-18T17:39:06.626Z,10.90
2023-03-18T17:43:38.013Z,14.20
2023-03-18T17:47:50.568Z,16.35
2023-03-18T17:52:02.945Z,19.35
2023-03-18T17:56:17.533Z,19.02
2023-03-18T18:00:31.277Z,22.20
2023-03-18T18:04:46.033Z,22.55
2023-03-18T18:09:00.750Z,23.50
2023-03-18T18:13:19.623Z,23.73
2023-03-18T18:17:32.602Z,21.25
2023-03-18T18:21:46.817Z,21.80
2023-03-18T18:26:02.182Z,19.92
2023-03-18T18:30:20.609Z,20.27
2023-03-18T18:34:33.238Z,20.42
2023-03-18T18:38:46.226Z,25.33
2023-03-18T18:42:58.609Z,21.75
2023-03-18T18:47:21.490Z,21.25
2023-03-18T18:51:35.273Z,23.85
2023-03-18T18:55:47.896Z,20.95
2023-03-18T19:00:00.184Z,21.30
2023-03-18T19:04:16.012Z,22.10
2023-03-18T19:08:31.957Z,22.50
2023-03-18T19:12:44.929Z,24.20
2023-03-18T19:16:59.131Z,25.33
2023-03-18T19:21:12.224Z,24.45
2023-03-18T19:25:26.002Z,26.90
2023-03-18T19:29:38.757Z,25.58
2023-03-18T19:33:52.374Z,21.92
2023-03-18T19:38:04.867Z,20.45
2023-03-18T19:42:19.012Z,18.52
2023-03-18T19:46:37.228Z,16.70
2023-03-18T19:50:50.415Z,14.30
2023-03-18T19:55:08.520Z,17.30
2023-03-18T19:59:26.093Z,15.23
2023-03-18T20:03:38.919Z,15.98
2023-03-18T20:07:51.287Z,15.18
2023-03-18T20:12:05.993Z,13.85
2023-03-18T20:16:19.708Z,13.32
2023-03-18T20:20:33.854Z,13.65
2023-03-18T20:24:47.569Z,11.75
2023-03-18T20:29:00.238Z,12.68
2023-03-18T20:33:15.914Z,12.38
2023-03-18T20:37:34.986Z,12.20
2023-03-18T20:41:48.325Z,11.67
2023-03-18T20:46:02.225Z,10.40
2023-03-18T20:50:26.355Z,10.80
2023-03-18T20:54:38.759Z,10.80
2023-03-18T20:58:51.715Z,11.55
2023-03-18T21:03:04.201Z,11.15
2023-03-18T21:07:16.933Z,11.38
2023-03-18T21:11:32.922Z,11.38
2023-03-18T21:15:45.731Z,11.40
2023-03-18T21:20:11.027Z,11.38
2023-03-18T21:24:28.717Z,11.00
2023-03-18T21:28:41.075Z,10.38
2023-03-18T21:32:53.549Z,9.75
2023-03-18T21:37:15.272Z,10.45
2023-03-18T21:41:31.201Z,10.38
2023-03-18T21:45:43.657Z,16.27
2023-03-18T21:49:57.580Z,18.77
2023-03-18T21:54:18.678Z,18.98
2023-03-18T21:58:31.149Z,19.73
2023-03-18T22:02:44.136Z,19.38
2023-03-18T22:06:56.635Z,19.80
2023-03-18T22:11:23.099Z,21.55
2023-03-18T22:15:39.927Z,21.75
2023-03-18T22:19:52.904Z,21.90
2023-03-18T22:24:05.591Z,21.58
2023-03-18T22:28:18.660Z,22.48
2023-03-18T22:32:43.221Z,21.85
2023-03-18T22:36:55.876Z,21.92
2023-03-18T22:41:19.583Z,21.85
2023-03-18T22:45:34.228Z,22.00
2023-03-18T22:49:47.287Z,24.13
2023-03-18T22:53:59.705Z,24.98
2023-03-18T22:58:20.876Z,16.80
2023-03-18T23:02:33.277Z,15.45
2023-03-18T23:06:46.417Z,14.65
2023-03-18T23:11:01.993Z,14.88
2023-03-18T23:15:18.347Z,15.35
2023-03-18T23:19:30.738Z,13.52
2023-03-18T23:23:43.379Z,14.02
2023-03-18T23:27:55.768Z,14.50
2023-03-18T23:32:08.460Z,13.30
2023-03-18T23:36:20.915Z,12.23
2023-03-18T23:40:33.845Z,12.10
2023-03-18T23:44:46.974Z,10.85
2023-03-18T23:48:59.772Z,10.65
2023-03-18T23:53:12.158Z,10.73
2023-03-18T23:57:24.687Z,11.27
